createdAt,value
2018-02-19T00:02:04.769Z,64.79
2018-02-19T00:04:32.279Z,64.91
2018-02-19T00:06:59.788Z,65.12
2018-02-19T00:09:27.389Z,65.17
2018-02-19T00:11:54.959Z,65.40
2018-02-19T00:14:22.468Z,65.41
2018-02-19T00:16:50.004Z,65.71
2018-02-19T00:19:17.550Z,65.74
2018-02-19T00:21:45.061Z,65.99
2018-02-19T00:24:12.595Z,66.01
2018-02-19T00:26:40.119Z,66.19
2018-02-19T00:29:07.628Z,66.39
2018-02-19T00:31:35.225Z,66.41
2018-02-19T00:34:02.761Z,66.50
2018-02-19T00:36:30.286Z,66.62
2018-02-19T00:38:57.798Z,66.81
2018-02-19T00:41:25.310Z,66.80
2018-02-19T00:43:52.819Z,66.86
2018-02-19T00:46:20.333Z,67.29
2018-02-19T00:48:47.847Z,67.01
2018-02-19T00:51:15.358Z,67.42
2018-02-19T00:53:42.881Z,67.27
2018-02-19T00:56:10.396Z,67.54
2018-02-19T00:58:37.909Z,67.40
2018-02-19T01:01:05.548Z,67.51
2018-02-19T01:03:33.052Z,67.60
2018-02-19T01:06:00.572Z,68.07
2018-02-19T01:08:28.095Z,67.93
2018-02-19T01:10:55.607Z,68.09
2018-02-19T01:13:23.124Z,67.79
2018-02-19T01:15:50.630Z,67.82
2018-02-19T01:18:18.143Z,68.18
2018-02-19T01:20:45.650Z,68.11
2018-02-19T01:23:13.165Z,68.17
2018-02-19T01:25:40.676Z,68.11
2018-02-19T01:28:08.183Z,68.36
2018-02-19T01:30:35.708Z,68.42
2018-02-19T01:33:03.226Z,68.35
2018-02-19T01:35:30.752Z,68.32
2018-02-19T01:37:58.322Z,68.32
2018-02-19T01:40:25.888Z,68.64
2018-02-19T01:42:53.418Z,68.40
2018-02-19T01:45:20.999Z,68.55
2018-02-19T01:47:48.562Z,68.50
2018-02-19T01:50:16.072Z,68.62
2018-02-19T01:52:43.585Z,68.54
2018-02-19T01:55:11.206Z,68.20
2018-02-19T01:57:38.761Z,68.29
2018-02-19T02:00:06.308Z,68.40
2018-02-19T02:02:33.916Z,68.45
2018-02-19T02:05:01.475Z,68.50
2018-02-19T02:07:28.983Z,68.45
2018-02-19T02:09:56.597Z,68.28
2018-02-19T02:12:24.109Z,68.34
2018-02-19T02:14:51.720Z,68.43
2018-02-19T02:17:19.229Z,68.31
2018-02-19T02:19:46.747Z,68.38
2018-02-19T02:22:14.261Z,68.58
2018-02-19T02:24:41.783Z,68.48
2018-02-19T02:27:09.295Z,68.70
2018-02-19T02:29:36.869Z,68.62
2018-02-19T02:32:04.377Z,68.63
2018-02-19T02:34:31.992Z,68.42
2018-02-19T02:36:59.518Z,68.45
2018-02-19T02:39:27.054Z,68.85
2018-02-19T02:41:54.675Z,68.74
2018-02-19T02:44:22.244Z,68.61
2018-02-19T02:46:49.765Z,68.67
2018-02-19T02:49:17.318Z,68.77
2018-02-19T02:51:44.858Z,68.93
2018-02-19T02:54:12.375Z,69.11
2018-02-19T02:56:39.905Z,69.10
2018-02-19T02:59:07.493Z,68.83
2018-02-19T03:01:35.013Z,68.93
2018-02-19T03:04:02.553Z,68.94
2018-02-19T03:06:30.064Z,68.99
2018-02-19T03:08:58.025Z,69.08
2018-02-19T03:11:25.612Z,69.08
2018-02-19T03:13:53.162Z,69.28
2018-02-19T03:16:20.670Z,69.05
2018-02-19T03:18:48.180Z,69.07
2018-02-19T03:21:15.706Z,69.32
2018-02-19T03:23:43.227Z,69.42
2018-02-19T03:26:10.756Z,69.63
2018-02-19T03:28:38.313Z,69.50
2018-02-19T03:31:05.836Z,69.47
2018-02-19T03:33:33.436Z,69.75
2018-02-19T03:36:01.104Z,70.01
2018-02-19T03:38:28.621Z,69.94
2018-02-19T03:40:56.221Z,69.74
2018-02-19T03:43:23.782Z,70.07
2018-02-19T03:45:51.296Z,69.91
2018-02-19T03:48:18.816Z,70.07
2018-02-19T03:50:46.324Z,70.17
2018-02-19T03:53:13.832Z,70.14
2018-02-19T03:55:41.345Z,70.32
2018-02-19T03:58:08.937Z,69.97
2018-02-19T04:00:36.456Z,70.26
2018-02-19T04:03:03.996Z,70.00
2018-02-19T04:05:31.616Z,70.17
2018-02-19T04:07:59.179Z,70.06
2018-02-19T04:10:26.728Z,70.14
2018-02-19T04:12:54.292Z,70.34
2018-02-19T04:15:21.857Z,70.63
2018-02-19T04:17:49.411Z,70.92
2018-02-19T04:20:16.977Z,70.89
2018-02-19T04:22:44.489Z,70.86
2018-02-19T04:25:12.095Z,71.05
2018-02-19T04:27:39.604Z,71.14
2018-02-19T04:30:07.127Z,71.05
2018-02-19T04:32:34.646Z,70.90
2018-02-19T04:35:02.238Z,71.15
2018-02-19T04:37:29.793Z,71.26
2018-02-19T04:39:57.296Z,71.49
2018-02-19T04:42:24.913Z,71.44
2018-02-19T04:44:53.981Z,71.29
2018-02-19T04:47:21.497Z,71.75
2018-02-19T04:49:49.011Z,71.78
2018-02-19T04:52:16.601Z,72.16
2018-02-19T04:54:44.148Z,72.09
2018-02-19T04:57:11.705Z,72.33
2018-02-19T04:59:39.217Z,72.42
2018-02-19T05:02:06.745Z,72.35
2018-02-19T05:04:34.260Z,72.21
2018-02-19T05:07:01.810Z,72.55
2018-02-19T05:09:29.336Z,72.65
2018-02-19T05:11:56.849Z,72.53
2018-02-19T05:14:24.388Z,72.56
2018-02-19T05:16:51.993Z,72.68
2018-02-19T05:19:19.539Z,72.68
2018-02-19T05:21:47.074Z,72.81
2018-02-19T05:24:14.604Z,72.71
2018-02-19T05:26:42.116Z,72.85
2018-02-19T05:29:09.681Z,72.91
2018-02-19T05:31:37.245Z,72.81
2018-02-19T05:34:04.759Z,72.92
2018-02-19T05:36:32.307Z,72.86
2018-02-19T05:38:59.920Z,73.05
2018-02-19T05:41:27.484Z,73.06
2018-02-19T05:43:54.992Z,72.90
2018-02-19T05:46:22.601Z,73.32
2018-02-19T05:48:50.129Z,73.28
2018-02-19T05:51:17.648Z,73.37
2018-02-19T05:53:45.283Z,73.25
2018-02-19T05:56:12.798Z,73.29
2018-02-19T05:58:40.339Z,73.67
2018-02-19T06:01:07.856Z,73.66
2018-02-19T06:03:35.430Z,73.61
2018-02-19T06:06:02.945Z,73.62
2018-02-19T06:08:30.479Z,73.59
2018-02-19T06:10:58.008Z,73.61
2018-02-19T06:13:25.557Z,73.61
2018-02-19T06:15:53.089Z,73.55
2018-02-19T06:18:20.600Z,73.73
2018-02-19T06:20:48.104Z,73.88
2018-02-19T06:23:15.629Z,73.98
2018-02-19T06:25:43.265Z,74.01
2018-02-19T06:28:10.835Z,74.05
2018-02-19T06:30:38.350Z,73.99
2018-02-19T06:33:05.937Z,73.93
2018-02-19T06:35:33.445Z,73.63
2018-02-19T06:38:00.955Z,73.75
2018-02-19T06:40:28.498Z,73.75
2018-02-19T06:42:56.008Z,73.22
2018-02-19T06:45:23.637Z,73.41
2018-02-19T06:47:51.144Z,73.52
2018-02-19T06:50:18.752Z,73.24
2018-02-19T06:52:46.302Z,72.98
2018-02-19T06:55:13.838Z,72.93
2018-02-19T06:57:41.357Z,72.57
2018-02-19T07:00:08.872Z,72.54
2018-02-19T07:02:36.465Z,72.23
2018-02-19T07:05:03.981Z,72.30
2018-02-19T07:07:31.511Z,71.88
2018-02-19T07:09:59.031Z,71.74
2018-02-19T07:12:26.593Z,72.27
2018-02-19T07:14:54.116Z,73.38
2018-02-19T07:17:21.708Z,72.30
2018-02-19T07:19:49.225Z,72.44
2018-02-19T07:22:16.739Z,72.28
2018-02-19T07:24:44.264Z,72.25
2018-02-19T07:27:11.804Z,71.92
2018-02-19T07:29:39.405Z,71.60
2018-02-19T07:32:06.970Z,71.48
2018-02-19T07:34:34.490Z,71.91
2018-02-19T07:37:02.089Z,71.74
2018-02-19T07:39:29.596Z,70.99
2018-02-19T07:41:57.118Z,70.70
2018-02-19T07:44:24.668Z,70.69
2018-02-19T07:46:52.203Z,70.30
2018-02-19T07:49:19.728Z,69.17
2018-02-19T07:51:47.257Z,68.90
2018-02-19T07:54:14.769Z,68.21
2018-02-19T07:56:42.367Z,67.80
2018-02-19T07:59:09.887Z,67.10
2018-02-19T08:01:37.410Z,65.14
2018-02-19T08:04:04.936Z,65.76
2018-02-19T08:06:32.501Z,64.23
2018-02-19T08:09:00.063Z,65.06
2018-02-19T08:11:27.575Z,63.87
2018-02-19T08:13:55.121Z,64.78
2018-02-19T08:16:22.658Z,64.13
2018-02-19T08:18:50.199Z,63.15
2018-02-19T08:21:17.708Z,62.31
2018-02-19T08:23:45.220Z,64.06
2018-02-19T08:26:12.729Z,64.23
2018-02-19T08:28:40.246Z,63.14
2018-02-19T08:31:07.764Z,62.06
2018-02-19T08:33:35.288Z,61.39
2018-02-19T08:36:02.797Z,62.02
2018-02-19T08:38:30.313Z,60.84
2018-02-19T08:40:57.839Z,61.20
2018-02-19T08:43:25.352Z,60.56
2018-02-19T08:45:52.901Z,61.20
2018-02-19T08:48:20.417Z,58.97
2018-02-19T08:50:47.932Z,61.44
2018-02-19T08:53:15.489Z,60.55
2018-02-19T08:55:42.997Z,61.40
2018-02-19T08:58:10.522Z,59.31
2018-02-19T09:00:38.044Z,59.64
2018-02-19T09:03:05.547Z,60.79
2018-02-19T09:05:33.062Z,58.07
2018-02-19T09:08:00.635Z,55.84
2018-02-19T09:10:28.151Z,56.84
2018-02-19T09:12:55.669Z,58.85
2018-02-19T09:15:23.183Z,58.04
2018-02-19T09:17:50.696Z,58.99
2018-02-19T09:20:18.214Z,57.77
2018-02-19T09:22:45.737Z,57.56
2018-02-19T09:25:13.249Z,57.94
2018-02-19T09:27:40.767Z,59.16
2018-02-19T09:30:08.281Z,57.85
2018-02-19T09:32:35.801Z,58.73
2018-02-19T09:35:03.312Z,59.03
2018-02-19T09:37:30.828Z,57.26
2018-02-19T09:39:58.340Z,56.75
2018-02-19T09:42:25.848Z,58.62
2018-02-19T09:44:53.385Z,58.78
2018-02-19T09:47:20.898Z,57.76
2018-02-19T09:49:48.419Z,57.85
2018-02-19T09:52:15.924Z,57.92
2018-02-19T09:54:43.433Z,58.38
2018-02-19T09:57:10.961Z,57.87
2018-02-19T09:59:38.480Z,57.83
2018-02-19T10:02:05.990Z,57.85
2018-02-19T10:04:33.497Z,56.76
2018-02-19T10:07:01.013Z,56.33
2018-02-19T10:09:28.538Z,56.18
2018-02-19T10:11:56.052Z,58.15
2018-02-19T10:14:23.569Z,55.58
2018-02-19T10:16:51.095Z,55.81
2018-02-19T10:19:18.607Z,57.23
2018-02-19T10:21:46.117Z,57.53
2018-02-19T10:24:13.636Z,54.87
2018-02-19T10:26:41.150Z,54.96
2018-02-19T10:29:08.667Z,55.82
2018-02-19T10:31:36.179Z,57.25
2018-02-19T10:34:03.688Z,57.39
2018-02-19T10:36:31.224Z,57.18
2018-02-19T10:38:58.732Z,57.06
2018-02-19T10:41:26.244Z,56.11
2018-02-19T10:43:53.748Z,55.95
2018-02-19T10:46:21.302Z,55.10
2018-02-19T10:48:48.815Z,56.33
2018-02-19T10:51:16.340Z,58.07
2018-02-19T10:53:43.857Z,56.60
2018-02-19T10:56:11.369Z,55.59
2018-02-19T10:58:44.849Z,54.20
2018-02-19T11:01:12.365Z,56.07
2018-02-19T11:03:39.883Z,54.69
2018-02-19T11:06:07.424Z,54.23
2018-02-19T11:08:34.942Z,54.84
2018-02-19T11:11:02.454Z,54.00
2018-02-19T11:13:29.977Z,54.59
2018-02-19T11:15:57.491Z,52.83
2018-02-19T11:18:25.001Z,54.25
2018-02-19T11:20:52.513Z,52.71
2018-02-19T11:23:20.054Z,54.86
2018-02-19T11:25:47.564Z,53.39
2018-02-19T11:28:15.073Z,53.01
2018-02-19T11:30:42.593Z,54.67
2018-02-19T11:33:10.128Z,54.78
2018-02-19T11:35:37.645Z,55.08
2018-02-19T11:38:05.167Z,54.46
2018-02-19T11:40:32.682Z,55.05
2018-02-19T11:43:00.197Z,54.55
2018-02-19T11:45:27.734Z,54.82
2018-02-19T11:47:55.261Z,54.94
2018-02-19T11:50:22.789Z,53.98
2018-02-19T11:52:50.293Z,54.55
2018-02-19T11:55:17.854Z,55.02
2018-02-19T11:57:45.345Z,55.76
2018-02-19T12:00:12.853Z,55.46
2018-02-19T12:02:40.381Z,55.78
2018-02-19T12:05:07.903Z,55.97
2018-02-19T12:07:35.420Z,55.61
2018-02-19T12:10:02.949Z,55.13
2018-02-19T12:12:30.460Z,54.84
2018-02-19T12:14:57.977Z,55.36
2018-02-19T12:17:25.494Z,54.64
2018-02-19T12:19:53.004Z,54.41
2018-02-19T12:22:20.523Z,54.55
2018-02-19T12:24:48.046Z,54.23
2018-02-19T12:27:15.553Z,53.28
2018-02-19T12:29:43.079Z,53.86
2018-02-19T12:32:10.589Z,54.08
2018-02-19T12:34:38.194Z,55.08
2018-02-19T12:37:05.704Z,55.68
2018-02-19T12:39:33.243Z,55.54
2018-02-19T12:42:00.771Z,55.38
2018-02-19T12:44:28.323Z,54.92
2018-02-19T12:46:55.824Z,55.47
2018-02-19T12:49:23.441Z,55.04
2018-02-19T12:51:50.960Z,55.41
2018-02-19T12:54:18.561Z,55.40
2018-02-19T12:56:46.081Z,55.44
2018-02-19T12:59:13.599Z,56.80
2018-02-19T13:01:41.113Z,56.15
2018-02-19T13:04:08.697Z,55.44
2018-02-19T13:06:36.204Z,55.06
2018-02-19T13:09:03.833Z,55.42
2018-02-19T13:11:31.377Z,54.26
2018-02-19T13:13:58.880Z,55.70
2018-02-19T13:16:26.509Z,54.98
2018-02-19T13:18:54.024Z,55.44
2018-02-19T13:21:21.556Z,54.90
2018-02-19T13:23:49.065Z,54.62
2018-02-19T13:26:18.122Z,54.58
2018-02-19T13:28:45.634Z,53.71
2018-02-19T13:31:13.158Z,54.01
2018-02-19T13:33:40.672Z,54.08
2018-02-19T13:36:08.271Z,53.95
2018-02-19T13:38:35.781Z,53.86
2018-02-19T13:41:03.415Z,54.27
2018-02-19T13:43:35.423Z,54.01
2018-02-19T13:46:02.938Z,53.40
2018-02-19T13:48:30.450Z,53.46
2018-02-19T13:50:57.964Z,53.54
2018-02-19T13:53:25.481Z,53.22
2018-02-19T13:55:52.994Z,52.86
2018-02-19T13:58:20.522Z,53.15
2018-02-19T14:00:48.038Z,53.17
2018-02-19T14:03:15.553Z,52.65
2018-02-19T14:05:43.113Z,52.79
2018-02-19T14:08:10.626Z,53.59
2018-02-19T14:10:38.148Z,53.19
2018-02-19T14:13:05.658Z,53.36
2018-02-19T14:15:33.173Z,53.36
2018-02-19T14:18:00.687Z,52.73
2018-02-19T14:20:28.204Z,53.75
2018-02-19T14:22:55.712Z,53.81
2018-02-19T14:25:23.224Z,53.70
2018-02-19T14:27:50.742Z,53.70
2018-02-19T14:30:18.253Z,54.28
2018-02-19T14:32:45.769Z,53.26
2018-02-19T14:35:13.297Z,54.01
2018-02-19T14:37:40.836Z,53.62
2018-02-19T14:40:08.355Z,53.25
2018-02-19T14:42:35.865Z,53.61
2018-02-19T14:45:03.374Z,52.76
2018-02-19T14:47:30.885Z,53.16
2018-02-19T14:49:58.392Z,53.31
2018-02-19T14:52:25.903Z,54.00
2018-02-19T14:54:53.422Z,54.01
2018-02-19T14:57:20.938Z,54.07
2018-02-19T14:59:49.308Z,54.18
2018-02-19T15:02:16.792Z,53.36
2018-02-19T15:04:44.309Z,53.59
2018-02-19T15:07:11.821Z,53.89
2018-02-19T15:09:39.329Z,54.35
2018-02-19T15:12:06.836Z,54.50
2018-02-19T15:14:34.369Z,53.90
2018-02-19T15:17:01.893Z,54.70
2018-02-19T15:19:29.404Z,54.58
2018-02-19T15:21:56.989Z,54.36
2018-02-19T15:24:24.513Z,54.88
2018-02-19T15:26:52.096Z,54.72
2018-02-19T15:29:19.604Z,54.74
2018-02-19T15:31:47.112Z,55.41
2018-02-19T15:34:14.627Z,54.92
2018-02-19T15:36:42.201Z,55.43
2018-02-19T15:39:09.803Z,55.33
2018-02-19T15:41:37.336Z,55.48
2018-02-19T15:44:04.881Z,55.73
2018-02-19T15:46:32.398Z,55.79
2018-02-19T15:48:59.916Z,56.05
2018-02-19T15:51:27.469Z,56.01
2018-02-19T15:53:54.984Z,56.04
2018-02-19T15:56:22.512Z,56.53
2018-02-19T15:58:50.033Z,57.30
2018-02-19T16:01:17.554Z,56.75
2018-02-19T16:03:45.077Z,56.83
2018-02-19T16:06:12.648Z,57.26
2018-02-19T16:08:40.156Z,57.16
2018-02-19T16:11:07.661Z,57.23
2018-02-19T16:13:35.226Z,57.29
2018-02-19T16:16:02.786Z,57.54
2018-02-19T16:18:30.292Z,57.46
2018-02-19T16:20:57.801Z,57.55
2018-02-19T16:23:25.371Z,57.66
2018-02-19T16:25:52.921Z,57.76
2018-02-19T16:28:20.482Z,57.70
2018-02-19T16:30:48.009Z,57.86
2018-02-19T16:33:15.602Z,58.03
2018-02-19T16:35:43.111Z,58.20
2018-02-19T16:38:10.773Z,58.20
2018-02-19T16:40:38.283Z,58.25
2018-02-19T16:43:05.841Z,58.38
2018-02-19T16:45:33.351Z,58.40
2018-02-19T16:48:00.868Z,58.17
2018-02-19T16:50:28.376Z,58.29
2018-02-19T16:52:55.892Z,58.43
2018-02-19T16:55:23.404Z,58.30
2018-02-19T16:57:50.909Z,58.37
2018-02-19T17:00:18.429Z,58.64
2018-02-19T17:02:45.969Z,58.95
2018-02-19T17:05:13.577Z,59.36
2018-02-19T17:07:41.104Z,59.36
2018-02-19T17:10:08.706Z,59.47
2018-02-19T17:12:36.253Z,59.72
2018-02-19T17:15:03.817Z,59.78
2018-02-19T17:17:31.372Z,59.89
2018-02-19T17:19:58.904Z,60.07
2018-02-19T17:22:26.433Z,59.98
2018-02-19T17:24:53.939Z,60.01
2018-02-19T17:27:21.459Z,60.34
2018-02-19T17:29:48.983Z,60.41
2018-02-19T17:32:16.492Z,60.49
2018-02-19T17:34:43.998Z,60.77
2018-02-19T17:37:11.504Z,60.71
2018-02-19T17:39:39.082Z,60.77
2018-02-19T17:42:06.681Z,60.93
2018-02-19T17:44:34.188Z,60.90
2018-02-19T17:47:01.801Z,61.09
2018-02-19T17:49:29.312Z,60.96
2018-02-19T17:51:56.849Z,61.04
2018-02-19T17:54:24.382Z,61.19
2018-02-19T17:56:51.928Z,61.33
2018-02-19T17:59:19.442Z,61.17
2018-02-19T18:01:46.985Z,61.40
2018-02-19T18:04:14.589Z,61.33
2018-02-19T18:06:42.113Z,61.30
2018-02-19T18:09:09.741Z,61.34
2018-02-19T18:11:37.256Z,61.63
2018-02-19T18:14:04.765Z,61.53
2018-02-19T18:16:32.268Z,61.42
2018-02-19T18:18:59.791Z,61.27
2018-02-19T18:21:27.310Z,61.46
2018-02-19T18:23:54.832Z,61.48
2018-02-19T18:26:22.343Z,61.55
2018-02-19T18:28:49.854Z,61.80
2018-02-19T18:31:17.369Z,61.69
2018-02-19T18:33:44.909Z,61.74
2018-02-19T18:36:12.421Z,61.79
2018-02-19T18:38:39.936Z,61.69
2018-02-19T18:41:07.456Z,61.89
2018-02-19T18:43:35.004Z,61.87
2018-02-19T18:46:02.515Z,61.65
2018-02-19T18:48:30.061Z,61.80
2018-02-19T18:50:57.574Z,61.80
2018-02-19T18:53:25.089Z,61.88
2018-02-19T18:55:52.595Z,61.85
2018-02-19T18:58:20.109Z,61.91
2018-02-19T19:00:47.617Z,62.09
2018-02-19T19:03:15.258Z,61.96
2018-02-19T19:05:42.804Z,62.09
2018-02-19T19:08:22.039Z,61.98
2018-02-19T19:10:52.534Z,62.06
2018-02-19T19:13:20.075Z,62.35
2018-02-19T19:15:47.613Z,62.67
2018-02-19T19:18:15.129Z,62.37
2018-02-19T19:20:42.652Z,62.22
2018-02-19T19:23:10.183Z,62.36
2018-02-19T19:25:37.709Z,62.56
2018-02-19T19:28:05.225Z,63.02
2018-02-19T19:30:32.744Z,62.64
2018-02-19T19:33:01.227Z,62.95
2018-02-19T19:35:28.749Z,62.87
2018-02-19T19:37:56.288Z,62.68
2018-02-19T19:40:23.841Z,62.64
2018-02-19T19:42:51.364Z,62.65
2018-02-19T19:45:18.905Z,62.75
2018-02-19T19:47:46.474Z,62.65
2018-02-19T19:50:13.989Z,62.86
2018-02-19T19:52:41.513Z,62.79
2018-02-19T19:55:09.145Z,63.08
2018-02-19T19:57:36.681Z,63.50
2018-02-19T20:00:04.294Z,63.25
2018-02-19T20:02:31.808Z,63.26
2018-02-19T20:04:59.388Z,63.43
2018-02-19T20:07:26.944Z,63.52
2018-02-19T20:09:55.009Z,63.54
2018-02-19T20:12:22.512Z,63.77
2018-02-19T20:14:50.141Z,63.85
2018-02-19T20:17:17.691Z,63.75
2018-02-19T20:19:45.200Z,64.19
2018-02-19T20:22:12.718Z,64.15
2018-02-19T20:24:40.228Z,64.02
2018-02-19T20:27:07.771Z,64.56
2018-02-19T20:29:35.277Z,64.34
2018-02-19T20:32:02.828Z,64.48
2018-02-19T20:34:30.345Z,64.21
2018-02-19T20:36:58.685Z,64.58
2018-02-19T20:39:26.197Z,64.40
2018-02-19T20:41:54.030Z,64.65
2018-02-19T20:44:21.558Z,64.51
2018-02-19T20:46:49.716Z,64.86
2018-02-19T20:49:17.234Z,64.87
2018-02-19T20:51:44.748Z,64.80
2018-02-19T20:54:12.281Z,65.23
2018-02-19T20:56:39.804Z,65.36
2018-02-19T20:59:07.330Z,65.26
2018-02-19T21:01:34.844Z,65.43
2018-02-19T21:04:02.361Z,65.49
2018-02-19T21:06:29.873Z,65.50
2018-02-19T21:08:57.414Z,65.46
2018-02-19T21:11:24.930Z,65.33
2018-02-19T21:13:52.442Z,65.30
2018-02-19T21:16:19.957Z,65.48
2018-02-19T21:18:47.473Z,65.41
2018-02-19T21:21:15.016Z,65.49
2018-02-19T21:23:42.532Z,65.34
2018-02-19T21:26:10.045Z,65.36
2018-02-19T21:28:37.553Z,65.23
2018-02-19T21:31:05.078Z,65.13
2018-02-19T21:33:32.592Z,65.05
2018-02-19T21:36:00.118Z,65.05
2018-02-19T21:38:27.646Z,65.20
2018-02-19T21:40:55.162Z,65.24
2018-02-19T21:43:22.678Z,65.30
2018-02-19T21:45:50.193Z,65.43
2018-02-19T21:48:17.719Z,65.41
2018-02-19T21:50:45.232Z,65.26
2018-02-19T21:53:12.758Z,65.41
2018-02-19T21:55:40.280Z,65.49
2018-02-19T21:58:07.799Z,65.43
2018-02-19T22:00:35.312Z,65.49
2018-02-19T22:03:02.862Z,65.65
2018-02-19T22:05:30.376Z,65.78
2018-02-19T22:07:57.893Z,65.62
2018-02-19T22:10:25.409Z,65.97
2018-02-19T22:12:52.930Z,65.75
2018-02-19T22:15:20.445Z,65.93
2018-02-19T22:17:47.973Z,66.07
2018-02-19T22:20:15.489Z,66.04
2018-02-19T22:22:42.997Z,66.15
2018-02-19T22:25:10.508Z,66.12
2018-02-19T22:27:38.021Z,66.32
2018-02-19T22:30:05.538Z,66.44
2018-02-19T22:32:33.070Z,66.90
2018-02-19T22:35:00.652Z,66.88
2018-02-19T22:37:28.161Z,66.90
2018-02-19T22:39:55.698Z,66.91
2018-02-19T22:42:23.208Z,66.75
2018-02-19T22:44:50.789Z,67.01
2018-02-19T22:47:18.309Z,67.02
2018-02-19T22:49:45.884Z,66.95
2018-02-19T22:52:13.586Z,66.96
2018-02-19T22:54:41.114Z,67.07
2018-02-19T22:57:08.656Z,67.31
2018-02-19T22:59:36.170Z,67.40
2018-02-19T23:02:03.680Z,67.56
2018-02-19T23:04:31.265Z,67.24
2018-02-19T23:06:58.842Z,67.49
2018-02-19T23:09:26.399Z,67.65
2018-02-19T23:11:53.922Z,67.59
2018-02-19T23:14:21.509Z,67.74
2018-02-19T23:16:49.039Z,68.08
2018-02-19T23:19:16.627Z,67.86
2018-02-19T23:21:44.174Z,67.99
2018-02-19T23:24:11.696Z,68.15
2018-02-19T23:26:39.318Z,68.11
2018-02-19T23:29:06.877Z,68.27
2018-02-19T23:31:34.886Z,68.16
2018-02-19T23:34:02.409Z,68.51
2018-02-19T23:36:29.924Z,68.59
2018-02-19T23:38:57.436Z,68.63
2018-02-19T23:41:24.958Z,68.97
2018-02-19T23:43:52.480Z,69.17
2018-02-19T23:46:20.006Z,69.11
2018-02-19T23:48:47.533Z,69.24
2018-02-19T23:51:15.055Z,69.41
2018-02-19T23:53:42.592Z,69.47
2018-02-19T23:56:10.130Z,69.03
2018-02-19T23:58:37.641Z,69.40
